Time;durP1;ratioP1;P1;durP2;ratioP2;P2;SDS_P1;SDS_P2;PMS_P1;PMS_P2;Temp;Humidity;BMP_temperature;BMP_pressure;BME280_temperature;BME280_humidity;BME280_pressure;Samples;Min_cycle;Max_cycle;Signal;HPM_P1;HPM_P2
2024/02/24 00:02:40;;;;;;;71.50;34.30;;;;;;;10.31;91.88;99093.55;680566;1262;140707;-80
2024/02/24 00:17:44;;;;;;;73.30;35.80;;;;;;;10.35;93.16;99074.11;676425;1259;140131;-81
2024/02/24 00:32:48;;;;;;;102.60;42.10;;;;;;;10.41;93.78;99055.52;676699;1260;140219;-80
2024/02/24 00:47:51;;;;;;;48.00;25.90;;;;;;;10.44;94.46;99045.91;676809;1262;139329;-80
2024/02/24 01:02:55;;;;;;;62.20;31.00;;;;;;;10.43;94.30;99029.89;680112;1259;139828;-80
2024/02/24 01:18:00;;;;;;;70.30;33.70;;;;;;;10.40;94.66;98995.08;679463;1262;139205;-80
2024/02/24 01:33:05;;;;;;;55.80;27.90;;;;;;;10.40;94.97;98975.53;678424;1263;139415;-80
2024/02/24 01:48:09;;;;;;;48.00;24.90;;;;;;;10.43;95.50;98951.80;677338;1267;138781;-80
2024/02/24 02:03:13;;;;;;;48.40;24.90;;;;;;;10.49;96.18;98920.52;677869;1264;138826;-80
2024/02/24 02:18:19;;;;;;;53.80;27.00;;;;;;;10.58;97.40;98878.86;681707;1262;138954;-80
2024/02/24 02:33:22;;;;;;;57.10;29.40;;;;;;;10.69;98.48;98867.54;681662;1264;139163;-81
2024/02/24 02:48:26;;;;;;;60.20;28.90;;;;;;;10.76;98.66;98850.95;681621;1264;138822;-79
2024/02/24 03:03:29;;;;;;;53.40;27.10;;;;;;;10.75;99.33;98839.84;681663;1263;139108;-80
2024/02/24 03:18:33;;;;;;;47.80;24.80;;;;;;;10.76;99.61;98825.81;681618;1263;139334;-80
2024/02/24 03:33:37;;;;;;;40.10;20.50;;;;;;;10.73;99.59;98802.35;681800;1264;138425;-81
2024/02/24 03:48:40;;;;;;;39.60;20.20;;;;;;;10.63;99.81;98790.02;681294;1265;164270;-80
2024/02/24 04:03:44;;;;;;;35.60;19.40;;;;;;;10.67;99.67;98765.77;681563;1264;139630;-80
2024/02/24 04:18:49;;;;;;;37.30;19.00;;;;;;;10.74;99.88;98768.28;681673;1264;138689;-81
2024/02/24 04:33:53;;;;;;;47.80;24.40;;;;;;;10.75;100.00;98765.75;681675;1263;138212;-80
2024/02/24 04:48:58;;;;;;;44.30;23.60;;;;;;;10.73;100.00;98741.54;681441;1260;138964;-80
2024/02/24 05:04:04;;;;;;;50.90;27.80;;;;;;;10.70;100.00;98715.95;681750;1265;138759;-80
2024/02/24 05:19:09;;;;;;;78.00;30.20;;;;;;;10.66;100.00;98685.25;681715;1263;139869;-80
2024/02/24 05:34:13;;;;;;;72.50;34.00;;;;;;;10.67;100.00;98660.58;681747;1264;139796;-80
2024/02/24 05:49:17;;;;;;;198.10;88.20;;;;;;;10.64;100.00;98649.54;681650;1263;138728;-80
2024/02/24 06:04:21;;;;;;;111.50;51.90;;;;;;;10.71;100.00;98639.77;681709;1265;138914;-79
2024/02/24 06:19:24;;;;;;;36.20;21.40;;;;;;;10.83;100.00;98627.81;681527;1264;140870;-80
2024/02/24 06:34:31;;;;;;;40.10;24.00;;;;;;;10.91;100.00;98630.01;681564;1265;139456;-80
2024/02/24 06:49:35;;;;;;;48.10;29.00;;;;;;;10.91;100.00;98620.66;681467;1265;139004;-80
2024/02/24 07:04:41;;;;;;;38.30;23.70;;;;;;;11.07;100.00;98626.38;681701;1265;138983;-79
2024/02/24 07:19:44;;;;;;;34.70;22.70;;;;;;;11.02;100.00;98622.23;681538;1260;139479;-81
2024/02/24 07:34:48;;;;;;;36.90;21.90;;;;;;;11.11;100.00;98626.25;681633;1265;138710;-79
2024/02/24 07:49:52;;;;;;;45.90;28.80;;;;;;;10.94;100.00;98628.80;681504;1265;138580;-80
2024/02/24 08:04:55;;;;;;;32.90;21.40;;;;;;;11.07;100.00;98628.81;681426;1265;138757;-80
2024/02/24 08:20:00;;;;;;;32.70;21.60;;;;;;;11.15;100.00;98613.19;681553;1263;139692;-80
2024/02/24 08:35:04;;;;;;;35.50;20.80;;;;;;;11.32;100.00;98611.23;681969;1262;138714;-82
2024/02/24 08:50:07;;;;;;;42.10;24.10;;;;;;;11.38;100.00;98613.40;681459;1263;139159;-80
2024/02/24 09:05:11;;;;;;;80.40;31.00;;;;;;;11.34;100.00;98638.32;681735;1259;139576;-80
2024/02/24 09:20:18;;;;;;;19.20;12.50;;;;;;;11.63;100.00;98638.23;681564;1259;138934;-79
2024/02/24 09:35:23;;;;;;;9.80;6.70;;;;;;;11.40;99.80;98685.98;681342;1265;140025;-80
2024/02/24 09:50:27;;;;;;;18.60;12.60;;;;;;;10.19;99.35;98746.56;681645;1259;139380;-79
2024/02/24 10:05:31;;;;;;;16.00;8.00;;;;;;;9.89;100.00;98788.98;681648;1264;140048;-80
2024/02/24 10:20:35;;;;;;;11.10;5.70;;;;;;;9.70;99.45;98860.30;681500;1266;138435;-78
2024/02/24 10:35:40;;;;;;;11.60;5.20;;;;;;;9.19;98.38;98932.48;682064;1261;138770;-79
2024/02/24 10:50:47;;;;;;;7.80;4.80;;;;;;;8.57;98.65;98991.28;681898;1274;139023;-81
2024/02/24 11:05:51;;;;;;;9.10;4.80;;;;;;;8.23;98.23;99047.60;681989;1260;139314;-80
2024/02/24 11:20:55;;;;;;;8.00;4.40;;;;;;;8.20;96.88;99079.34;681857;1265;138050;-81
2024/02/24 11:36:02;;;;;;;7.20;5.00;;;;;;;8.14;95.94;99127.97;681972;1264;137870;-80
2024/02/24 11:51:07;;;;;;;9.90;6.30;;;;;;;8.09;95.43;99181.77;681882;1264;138679;-80
2024/02/24 12:06:11;;;;;;;13.20;8.00;;;;;;;8.32;93.78;99223.10;681958;1264;138093;-80
2024/02/24 12:21:16;;;;;;;9.20;4.40;;;;;;;8.62;92.96;99241.94;681874;1260;138546;-79
2024/02/24 12:36:25;;;;;;;8.90;5.30;;;;;;;9.13;91.23;99277.80;682000;1260;137919;-79
2024/02/24 12:51:29;;;;;;;9.10;4.40;;;;;;;9.26;89.54;99311.27;681749;1265;138576;-80
2024/02/24 13:06:32;;;;;;;5.80;3.00;;;;;;;9.60;88.30;99341.73;681926;1260;141392;-79
2024/02/24 13:21:37;;;;;;;8.90;3.60;;;;;;;10.58;88.07;99366.13;682168;1262;138569;-80
2024/02/24 13:36:41;;;;;;;13.20;6.40;;;;;;;10.69;85.85;99390.66;681999;1264;140116;-81
2024/02/24 13:51:45;;;;;;;30.50;13.90;;;;;;;10.79;84.29;99422.71;681952;1263;139435;-81
2024/02/24 14:06:48;;;;;;;7.50;5.10;;;;;;;10.73;82.99;99461.48;681903;1262;139131;-80
2024/02/24 14:21:53;;;;;;;12.00;5.90;;;;;;;10.73;81.93;99479.06;682242;1262;137989;-80
2024/02/24 14:36:56;;;;;;;9.50;4.80;;;;;;;10.81;82.36;99502.55;681856;1263;138414;-78
2024/02/24 14:52:01;;;;;;;20.50;13.00;;;;;;;10.78;81.41;99524.94;681917;1264;139401;-79
2024/02/24 15:07:05;;;;;;;9.90;6.50;;;;;;;10.71;81.99;99545.02;681774;1267;138293;-80
2024/02/24 15:22:09;;;;;;;43.90;22.50;;;;;;;10.57;81.23;99570.06;681910;1265;138723;-77
2024/02/24 15:37:14;;;;;;;113.40;36.40;;;;;;;10.50;81.27;99588.72;681881;1264;139328;-78
2024/02/24 15:52:18;;;;;;;72.50;28.80;;;;;;;10.24;81.93;99619.01;681775;1262;169711;-78
2024/02/24 16:07:22;;;;;;;76.30;37.90;;;;;;;9.95;82.63;99647.19;681859;1264;139074;-79
2024/02/24 16:22:25;;;;;;;65.90;30.70;;;;;;;9.52;83.65;99666.91;682128;1264;138682;-80
2024/02/24 16:37:30;;;;;;;40.30;19.20;;;;;;;9.18;84.98;99680.30;681956;1264;139153;-79
2024/02/24 16:52:34;;;;;;;37.70;24.10;;;;;;;8.95;85.95;99695.16;682030;1266;138478;-80
2024/02/24 17:07:39;;;;;;;33.20;18.40;;;;;;;8.86;86.45;99714.63;682280;1262;138709;-79
2024/02/24 17:22:43;;;;;;;30.40;19.10;;;;;;;8.64;86.50;99740.95;681939;1262;140223;-79
2024/02/24 17:37:47;;;;;;;34.30;18.50;;;;;;;8.45;87.96;99768.89;681991;1262;138439;-78
2024/02/24 17:52:52;;;;;;;37.30;18.70;;;;;;;8.38;87.99;99775.81;681840;1259;141511;-78
2024/02/24 18:07:56;;;;;;;45.20;24.30;;;;;;;8.33;88.25;99785.65;681567;1262;139515;-78
2024/02/24 18:23:00;;;;;;;44.30;19.50;;;;;;;8.10;88.86;99798.86;681624;1262;138329;-79
2024/02/24 18:38:03;;;;;;;39.70;18.30;;;;;;;7.97;89.90;99808.84;681524;1267;139219;-78
2024/02/24 18:53:08;;;;;;;38.60;17.50;;;;;;;7.86;90.47;99823.23;681732;1262;139072;-79
2024/02/24 19:08:11;;;;;;;25.50;13.10;;;;;;;7.78;90.81;99832.39;681512;1265;138666;-78
2024/02/24 19:23:17;;;;;;;27.80;15.40;;;;;;;7.67;90.92;99844.41;681525;1262;138632;-79
2024/02/24 19:38:23;;;;;;;25.00;13.80;;;;;;;7.52;92.11;99871.64;681565;1265;140246;-80
2024/02/24 19:53:28;;;;;;;27.50;14.60;;;;;;;8.06;88.91;99894.16;681627;1265;139726;-78
2024/02/24 20:08:32;;;;;;;34.30;16.90;;;;;;;8.14;87.33;99899.06;681344;1262;139211;-80
2024/02/24 20:23:38;;;;;;;40.80;20.40;;;;;;;7.42;91.13;99920.75;681461;1267;138896;-79
2024/02/24 20:38:46;;;;;;;35.10;18.80;;;;;;;7.27;92.30;99928.77;681479;1262;138835;-80
2024/02/24 20:53:53;;;;;;;31.10;15.00;;;;;;;7.23;92.56;99925.23;681524;1265;138745;-78
2024/02/24 21:08:57;;;;;;;36.90;21.30;;;;;;;7.17;92.41;99927.48;681425;1263;138916;-80
2024/02/24 21:24:07;;;;;;;45.40;23.20;;;;;;;7.03;93.37;99944.94;681590;1265;139707;-80
2024/02/24 21:39:14;;;;;;;33.60;18.30;;;;;;;7.18;93.30;99956.77;681540;1266;140233;-80
2024/02/24 21:54:18;;;;;;;34.00;16.40;;;;;;;7.18;92.37;99961.16;681400;1267;139688;-79
2024/02/24 22:09:23;;;;;;;30.70;16.20;;;;;;;6.91;91.90;99957.84;681862;1264;138805;-80
2024/02/24 22:24:27;;;;;;;41.20;22.00;;;;;;;6.75;92.10;99966.02;681547;1267;139450;-79
2024/02/24 22:39:31;;;;;;;31.80;16.90;;;;;;;6.59;91.68;99982.36;681724;1265;140073;-80
2024/02/24 22:54:35;;;;;;;35.30;16.80;;;;;;;6.40;91.63;99990.03;681455;1265;140034;-79
2024/02/24 23:09:41;;;;;;;35.10;16.10;;;;;;;6.24;92.02;99992.61;681611;1262;138983;-80
2024/02/24 23:24:45;;;;;;;39.40;20.70;;;;;;;6.23;92.00;99992.70;681589;1266;139792;-80
2024/02/24 23:39:48;;;;;;;33.50;15.80;;;;;;;6.13;91.21;99994.94;681745;1265;139587;-80
2024/02/24 23:54:52;;;;;;;37.40;17.80;;;;;;;6.04;91.12;100007.61;681589;1265;141897;-79
